createdAt,value
2023-03-20T00:12:25.235Z,2.82
2023-03-20T00:27:26.018Z,2.5
2023-03-20T00:42:25.945Z,1.7
2023-03-20T01:12:25.552Z,1.12
2023-03-20T01:42:26.000Z,0.84
2023-03-20T02:12:25.846Z,1.42
2023-03-20T02:27:25.778Z,1.07
2023-03-20T02:42:25.696Z,1.31
2023-03-20T02:57:25.936Z,1.4
2023-03-20T03:27:25.895Z,1.93
2023-03-20T03:42:25.946Z,3.12
2023-03-20T03:57:26.219Z,1.47
2023-03-20T04:12:30.324Z,3.24
2023-03-20T04:27:25.297Z,1.51
2023-03-20T04:42:25.452Z,2.16
2023-03-20T04:57:25.429Z,2.25
2023-03-20T05:12:25.434Z,1.2
2023-03-20T05:27:25.215Z,7.24
2023-03-20T05:42:25.927Z,13.23
2023-03-20T05:57:27.071Z,5.91
2023-03-20T06:12:25.431Z,6.6
2023-03-20T06:27:25.415Z,4.57
2023-03-20T07:27:26.006Z,1.22
2023-03-20T07:42:25.792Z,5.37
2023-03-20T08:27:26.816Z,7.37
2023-03-20T08:42:26.298Z,1.26
2023-03-20T08:57:25.892Z,6.2
2023-03-20T09:42:26.165Z,1.94
2023-03-20T09:57:25.809Z,0.75
2023-03-20T10:12:25.518Z,0.82
2023-03-20T10:27:28.153Z,0.53
2023-03-20T10:57:26.144Z,0.78
2023-03-20T11:42:25.602Z,0.78
2023-03-20T11:57:26.339Z,1.55
2023-03-20T12:12:25.818Z,1.46
2023-03-20T12:42:32.197Z,4.11
2023-03-20T13:12:26.103Z,1.75
2023-03-20T13:27:25.997Z,2.53
2023-03-20T13:42:26.751Z,4.05
2023-03-20T13:57:25.794Z,1.75
2023-03-20T14:12:25.502Z,1.83
2023-03-20T14:27:41.072Z,1.93
2023-03-20T14:42:25.245Z,2.38
2023-03-20T14:57:26.052Z,2.98
2023-03-20T15:12:25.999Z,4.22
2023-03-20T15:27:25.898Z,3.52
2023-03-20T15:42:25.645Z,3.45
2023-03-20T15:57:26.659Z,7.81
2023-03-20T16:42:55.561Z,5.14
2023-03-20T17:12:26.215Z,3.84
2023-03-20T17:27:26.506Z,1.39
2023-03-20T17:42:26.748Z,11.56
2023-03-20T17:57:27.420Z,15.04
2023-03-20T18:12:27.807Z,6.97
2023-03-20T18:27:43.846Z,10.59
2023-03-20T18:42:26.784Z,7.29
2023-03-20T18:57:25.978Z,8.85
2023-03-20T19:27:27.401Z,18.02
2023-03-20T19:45:30.864Z,10.33
2023-03-20T19:57:26.753Z,9.6
2023-03-20T20:12:26.140Z,6.58
2023-03-20T20:27:26.924Z,7.22
2023-03-20T20:42:26.516Z,10.7
2023-03-20T20:57:28.662Z,9.47
2023-03-20T21:12:34.986Z,5.67
2023-03-20T21:58:10.240Z,4.46
2023-03-20T22:42:51.044Z,2.72
2023-03-20T23:27:26.206Z,1.94
2023-03-20T23:42:30.518Z,2.33
2023-03-20T23:57:25.675Z,2.14
